Terminal Aerodrome Forecast
Issued by NWS Amarillo, TX

Home | Current Version | Previous Version | Text Only | Print | Product List | Glossary On
Versions: 1 2 3 4 5 6 7 8 9 10 11 12 13 14 15 16
927
FTUS44 KAMA 290522
TAFAMA
TAF
KAMA 290522Z 2906/3006 09017G27KT P6SM SCT015 OVC045
     FM290700 14016KT 6SM BR VCSH OVC010
      TEMPO 2907/2911 VRB45KT 3SM TSRA OVC008CB
     FM291100 12018KT 5SM -TSRA BR OVC008CB
     FM292000 23018KT P6SM SCT025
     FM300000 32020KT P6SM SKC=

USA.gov is the U.S. government's official web portal to all federal, state and local government web resources and services.